Oudenaarde, Belgium
Current Conditions -  °F | °C
As of 10:25 AM on Saturday 25 Oct 2014 (Local Time) from EBCV Reporting Station
Broken Clouds Broken Clouds  
Wind Chill: 55°   Ceiling: 500
Heat Index: 55°   Visibility: 4mi
Dew Point: 54°   Wind: 9mph
Humidity: 94%   Direction: 200°SSW
Pressure: 30.09"   Gusts: NA
Location:  50.85°N, 3.61°E
Report Text: EBCV 250825Z AUTO 20008KT 6000 BKN005/// BKN009/// 13/12 Q1019 YLO
Loading
Personal Weather Stations






























Interactive Weather Map
Tropical Storm Tracking
New forecast layout! Learn more

10-Day Weather Forecast

Advertisements
Track Severe Weather on mobile